East Lincoln, Mississippi
Current Conditions -  °F | °C
As of 8:35 AM on Monday 26 Jan 2015 (Local Time) from K1R7 Reporting Station
Broken Clouds Broken Clouds  
Wind Chill: 39°   Ceiling: 2600
Heat Index: 45°   Visibility: NA
Dew Point: 36°   Wind: 12mph
Humidity: 71%   Direction: 310°NW
Pressure: 30.14"   Gusts: NA
Location:  31.5898°N, 90.4722°W
Report Text: K1R7 261435Z AUTO 31010KT BKN026 07/02 A3014 RMK AO2
Loading
Personal Weather Stations






























Interactive Weather Map New forecast layout! Learn more

10-Day Weather Forecast

Advertisements
Track Severe Weather on mobile